CYNR

METAR CYNR 260600Z AUTO 03004KT 5SM FEW035 SCT120 M00/M01 A2982 RMK AO2 SLP113
METAR
LOCATION
CYNR
DATE - TIME
260600Z
WIND
030 TRUE @ 4 KNOTS
VISIBILITY
5SM
RUNWAY VISUAL RANGE
NOT REPORTED
WEATHER
CLOUDINESS
FEW035 SCT120
TEMP / DEWPOINT
-0 ºC / -1 ºC
ALTIMETER
29.82 in. Hg
RECENT WEATHER
NOT REPORTED
WIND SHEAR
NOT REPORTED
REMARKS
RMK AO2 SLP113
SEA LEVEL PRESSURE: hPa

CYNR

METAR CYNR 260500Z AUTO 03004KT 5SM FEW130 00/M01 A2982 RMK AO2 SLP115
METAR
LOCATION
CYNR
DATE - TIME
260500Z
WIND
030 TRUE @ 4 KNOTS
VISIBILITY
5SM
RUNWAY VISUAL RANGE
NOT REPORTED
WEATHER
CLOUDINESS
FEW130
TEMP / DEWPOINT
0 ºC / -1 ºC
ALTIMETER
29.82 in. Hg
RECENT WEATHER
NOT REPORTED
WIND SHEAR
NOT REPORTED
REMARKS
RMK AO2 SLP115
SEA LEVEL PRESSURE: hPa

CYNR

METAR CYNR 260400Z AUTO 35004KT 9SM BKN140 M00/M01 A2983 RMK AO2 SLP120
METAR
LOCATION
CYNR
DATE - TIME
260400Z
WIND
350 TRUE @ 4 KNOTS
VISIBILITY
9SM
RUNWAY VISUAL RANGE
NOT REPORTED
WEATHER
CLOUDINESS
BKN140
TEMP / DEWPOINT
-0 ºC / -1 ºC
ALTIMETER
29.83 in. Hg
RECENT WEATHER
NOT REPORTED
WIND SHEAR
NOT REPORTED
REMARKS
RMK AO2 SLP120
SEA LEVEL PRESSURE: hPa

Your time UTC time
 
 
Weather data provided by AXYS Technologies Inc., www.axystechnologies.com
 
Station History